This is the latest recevied weather packets stored in our database for station/object BV3BA-13. If no packets are shown the sender has not sent any weather packets the latest 10 day(s).
| Time | Temp. | Humidity | Pressure | Rain* | Wind** | Luminosity | Snow |
|---|---|---|---|---|---|---|---|
| 1777763824 | 26.11° C | 78% | 1005.8 hPa | 0 mm | - | - | - |
| 1777763224 | 25° C | 81% | 1005.8 hPa | 0 mm | - | - | - |
| 1777762623 | 24.44° C | 83% | 1005.6 hPa | 0 mm | - | - | - |
| 1777762024 | 23.89° C | 85% | 1005.6 hPa | 0 mm | - | - | - |
| 1777761423 | 23.89° C | 85% | 1005.5 hPa | 0 mm | - | - | - |
| 1777760823 | 23.33° C | 88% | 1005.3 hPa | 0 mm | - | - | - |
| 1777760224 | 22.78° C | 87% | 1005.3 hPa | 0 mm | - | - | - |
| 1777759625 | 22.78° C | 88% | 1005.3 hPa | 0 mm | - | - | - |
| 1777759024 | 22.78° C | 89% | 1005.1 hPa | 0 mm | - | - | - |
| 1777758425 | 22.78° C | 88% | 1005.1 hPa | 0 mm | - | - | - |
| 1777757824 | 22.78° C | 89% | 1005.1 hPa | 0 mm | - | - | - |
| 1777757224 | 22.78° C | 90% | 1005 hPa | 0 mm | - | - | - |
| 1777756623 | 22.78° C | 88% | 1004.9 hPa | 0 mm | - | - | - |
| 1777756024 | 22.78° C | 89% | 1005 hPa | 0 mm | - | - | - |
| 1777755424 | 22.78° C | 88% | 1005.1 hPa | 0 mm | - | - | - |
| 1777754824 | 22.78° C | 89% | 1005.1 hPa | 0 mm | - | - | - |
| 1777754224 | 22.78° C | 89% | 1005.2 hPa | 0 mm | - | - | - |
| 1777753623 | 22.78° C | 89% | 1005.2 hPa | 0 mm | - | - | - |
| 1777753024 | 22.78° C | 90% | 1005.3 hPa | 0 mm | - | - | - |
| 1777752423 | 22.78° C | 89% | 1005.4 hPa | 0 mm | - | - | - |
| 1777751823 | 22.78° C | 89% | 1005.5 hPa | 0 mm | - | - | - |
| 1777751223 | 22.78° C | 88% | 1005.4 hPa | 0 mm | - | - | - |
| 1777750624 | 22.22° C | 90% | 1005.4 hPa | 0 mm | - | - | - |
| 1777750023 | 22.78° C | 89% | 1005.5 hPa | 0 mm | - | - | - |
| 1777749424 | 22.78° C | 88% | 1005.7 hPa | 0 mm | - | - | - |
* Rain latest hour (hover to see other rain measurements)
** Current wind speed in m/s (hover to see current wind gust speed)